Terminal Aerodrome Forecast
Issued by NWS

Home | Current Version | Previous Version | Graphics & Text | Print | Product List | Glossary On
Versions: 1 2 3 4 5 6 7 8 9 10 11 12 13 14 15 16 17
000
FTUS43 KICT 262119 AAA
TAFSLN
TAF AMD
KSLN 262119Z 2621/2718 21013KT P6SM SCT100
     FM270300 03017G25KT P6SM SCT015 BKN050
     FM271000 04010KT P6SM SCT015 BKN050
     FM271500 09006KT P6SM BKN050=

USA.gov is the U.S. government's official web portal to all federal, state and local government web resources and services.